createdAt,value
2018-08-25T00:01:46.841Z,17.30
2018-08-25T00:04:14.372Z,17.30
2018-08-25T00:06:41.692Z,17.30
2018-08-25T00:09:10.207Z,17.30
2018-08-25T00:11:37.520Z,17.30
2018-08-25T00:14:04.921Z,17.30
2018-08-25T00:16:32.271Z,17.30
2018-08-25T00:18:59.626Z,17.30
2018-08-25T00:21:26.959Z,17.40
2018-08-25T00:23:54.275Z,17.40
2018-08-25T00:26:21.671Z,17.40
2018-08-25T00:28:48.992Z,17.40
2018-08-25T00:31:22.440Z,17.40
2018-08-25T00:33:50.186Z,17.40
2018-08-25T00:36:17.554Z,17.40
2018-08-25T00:38:44.923Z,17.40
2018-08-25T00:41:12.471Z,17.40
2018-08-25T00:43:39.843Z,17.50
2018-08-25T00:46:07.217Z,17.50
2018-08-25T00:48:34.531Z,17.50
2018-08-25T00:51:02.081Z,17.50
2018-08-25T00:53:29.421Z,17.50
2018-08-25T00:55:56.731Z,17.50
2018-08-25T00:58:24.082Z,17.50
2018-08-25T01:00:51.700Z,17.60
2018-08-25T01:03:19.181Z,17.50
2018-08-25T01:05:46.557Z,17.60
2018-08-25T01:08:13.892Z,17.50
2018-08-25T01:10:41.213Z,17.50
2018-08-25T01:13:09.009Z,17.60
2018-08-25T01:15:36.375Z,17.60
2018-08-25T01:18:03.767Z,17.50
2018-08-25T01:20:31.146Z,17.50
2018-08-25T01:22:58.516Z,17.50
2018-08-25T01:25:26.086Z,17.40
2018-08-25T01:27:53.536Z,17.40
2018-08-25T01:30:20.887Z,17.40
2018-08-25T01:32:48.443Z,17.30
2018-08-25T01:35:15.944Z,17.30
2018-08-25T01:37:43.308Z,17.20
2018-08-25T01:40:10.620Z,17.20
2018-08-25T01:42:38.015Z,17.10
2018-08-25T01:45:05.324Z,17.00
2018-08-25T01:47:32.656Z,17.00
2018-08-25T01:49:59.979Z,16.90
2018-08-25T01:52:27.283Z,16.80
2018-08-25T01:54:54.830Z,16.70
2018-08-25T01:57:22.143Z,16.70
2018-08-25T01:59:49.454Z,16.60
2018-08-25T02:02:23.564Z,16.50
2018-08-25T02:04:50.874Z,16.50
2018-08-25T02:07:18.353Z,16.40
2018-08-25T02:09:45.693Z,16.40
2018-08-25T02:12:13.289Z,16.40
2018-08-25T02:14:40.587Z,16.30
2018-08-25T02:17:07.971Z,16.30
2018-08-25T02:19:35.278Z,16.30
2018-08-25T02:22:02.570Z,16.20
2018-08-25T02:24:29.846Z,16.20
2018-08-25T02:26:57.212Z,16.20
2018-08-25T02:29:24.508Z,16.20
2018-08-25T02:31:51.783Z,16.10
2018-08-25T02:34:19.070Z,16.10
2018-08-25T02:36:46.386Z,16.10
2018-08-25T02:39:13.713Z,16.10
2018-08-25T02:41:41.839Z,16.10
2018-08-25T02:44:09.292Z,16.00
2018-08-25T02:46:36.600Z,16.10
2018-08-25T02:49:10.615Z,16.00
2018-08-25T02:51:37.907Z,16.00
2018-08-25T02:54:05.276Z,16.00
2018-08-25T02:56:32.666Z,16.00
2018-08-25T02:58:59.951Z,16.00
2018-08-25T03:01:27.339Z,16.00
2018-08-25T03:03:54.631Z,15.90
2018-08-25T03:06:21.919Z,15.90
2018-08-25T03:08:49.390Z,16.00
2018-08-25T03:11:16.695Z,16.00
2018-08-25T03:13:44.308Z,15.90
2018-08-25T03:16:11.865Z,15.90
2018-08-25T03:18:39.172Z,15.90
2018-08-25T03:21:06.526Z,15.90
2018-08-25T03:23:33.858Z,15.90
2018-08-25T03:26:01.187Z,15.90
2018-08-25T03:28:28.495Z,15.80
2018-08-25T03:30:56.091Z,15.80
2018-08-25T03:33:23.390Z,15.80
2018-08-25T03:35:50.671Z,15.80
2018-08-25T03:38:18.155Z,15.80
2018-08-25T03:40:45.442Z,15.70
2018-08-25T03:43:12.741Z,15.70
2018-08-25T03:45:40.087Z,15.70
2018-08-25T03:48:07.395Z,15.70
2018-08-25T03:50:34.711Z,15.70
2018-08-25T03:53:02.292Z,15.70
2018-08-25T03:55:29.683Z,15.70
2018-08-25T03:57:56.883Z,15.60
2018-08-25T04:00:24.186Z,15.70
2018-08-25T04:02:51.708Z,15.70
2018-08-25T04:05:19.263Z,15.70
2018-08-25T04:07:46.704Z,15.60
2018-08-25T04:10:14.009Z,15.60
2018-08-25T04:12:41.336Z,15.60
2018-08-25T04:15:08.667Z,15.70
2018-08-25T04:17:36.143Z,15.70
2018-08-25T04:20:03.790Z,15.70
2018-08-25T04:22:31.101Z,15.70
2018-08-25T04:24:58.450Z,15.60
2018-08-25T04:27:25.743Z,15.60
2018-08-25T04:29:53.037Z,15.60
2018-08-25T04:32:20.336Z,15.60
2018-08-25T04:34:47.675Z,15.60
2018-08-25T04:37:14.971Z,15.50
2018-08-25T04:39:42.279Z,15.50
2018-08-25T04:42:09.576Z,15.50
2018-08-25T04:44:36.864Z,15.40
2018-08-25T04:47:04.365Z,15.40
2018-08-25T04:49:31.684Z,15.30
2018-08-25T04:51:59.108Z,15.30
2018-08-25T04:54:26.404Z,15.30
2018-08-25T04:56:53.929Z,15.30
2018-08-25T04:59:21.237Z,15.20
2018-08-25T05:01:48.567Z,15.20
2018-08-25T05:04:15.827Z,15.10
2018-08-25T05:06:43.332Z,15.10
2018-08-25T05:09:10.908Z,15.10
2018-08-25T05:11:38.540Z,15.00
2018-08-25T05:14:05.848Z,15.00
2018-08-25T05:16:33.122Z,14.90
2018-08-25T05:19:00.608Z,14.90
2018-08-25T05:21:27.935Z,14.90
2018-08-25T05:23:55.261Z,14.90
2018-08-25T05:26:22.619Z,14.90
2018-08-25T05:28:50.132Z,14.90
2018-08-25T05:31:17.443Z,14.90
2018-08-25T05:33:44.938Z,15.00
2018-08-25T05:36:12.265Z,15.00
2018-08-25T05:38:39.596Z,15.10
2018-08-25T05:41:07.219Z,15.10
2018-08-25T05:43:34.571Z,15.20
2018-08-25T05:46:02.032Z,15.20
2018-08-25T05:48:29.613Z,15.30
2018-08-25T05:50:56.931Z,15.30
2018-08-25T05:53:24.427Z,15.40
2018-08-25T05:55:51.755Z,15.40
2018-08-25T05:58:19.062Z,15.50
2018-08-25T06:00:46.446Z,15.50
2018-08-25T06:03:13.899Z,15.60
2018-08-25T06:05:41.627Z,15.70
2018-08-25T06:08:09.149Z,15.80
2018-08-25T06:10:36.537Z,15.90
2018-08-25T06:13:03.880Z,15.90
2018-08-25T06:15:31.214Z,16.00
2018-08-25T06:17:58.576Z,16.10
2018-08-25T06:20:25.986Z,16.10
2018-08-25T06:22:53.349Z,16.20
2018-08-25T06:25:20.689Z,16.30
2018-08-25T06:27:48.047Z,16.50
2018-08-25T06:30:15.464Z,16.60
2018-08-25T06:32:42.742Z,16.60
2018-08-25T06:35:10.066Z,16.60
2018-08-25T06:37:37.379Z,16.70
2018-08-25T06:40:04.840Z,16.70
2018-08-25T06:42:32.203Z,16.60
2018-08-25T06:44:59.513Z,16.60
2018-08-25T06:47:26.856Z,16.60
2018-08-25T06:49:54.250Z,16.50
2018-08-25T06:52:21.912Z,16.50
2018-08-25T06:54:49.219Z,16.50
2018-08-25T06:57:16.723Z,16.40
2018-08-25T06:59:44.044Z,16.40
2018-08-25T07:02:11.559Z,16.50
2018-08-25T07:04:38.844Z,16.50
2018-08-25T07:09:40.219Z,16.60
2018-08-25T07:12:07.523Z,16.70
2018-08-25T07:14:34.808Z,16.70
2018-08-25T07:17:02.109Z,16.70
2018-08-25T07:19:29.424Z,16.70
2018-08-25T07:21:56.752Z,16.80
2018-08-25T07:24:24.056Z,16.80
2018-08-25T07:26:51.378Z,16.80
2018-08-25T07:29:18.903Z,16.90
2018-08-25T07:31:46.194Z,16.90
2018-08-25T07:34:13.491Z,17.00
2018-08-25T07:36:40.876Z,17.20
2018-08-25T07:39:11.395Z,17.10
2018-08-25T07:41:38.687Z,17.20
2018-08-25T07:44:06.073Z,17.10
2018-08-25T07:46:33.391Z,17.20
2018-08-25T07:49:00.719Z,17.30
2018-08-25T07:51:28.364Z,17.30
2018-08-25T07:53:55.743Z,17.40
2018-08-25T07:56:23.070Z,17.40
2018-08-25T07:58:50.635Z,17.50
2018-08-25T08:01:17.948Z,17.60
2018-08-25T08:06:19.319Z,17.70
2018-08-25T08:08:46.624Z,17.80
2018-08-25T08:11:14.005Z,17.90
2018-08-25T08:13:41.519Z,18.00
2018-08-25T08:16:09.016Z,18.00
2018-08-25T08:18:36.836Z,18.10
2018-08-25T08:21:04.192Z,18.10
2018-08-25T08:23:31.510Z,18.20
2018-08-25T08:25:58.812Z,18.20
2018-08-25T08:28:26.391Z,18.20
2018-08-25T08:30:53.710Z,18.30
2018-08-25T08:33:21.003Z,18.30
2018-08-25T08:35:48.529Z,18.40
2018-08-25T08:38:15.869Z,18.50
2018-08-25T08:40:43.184Z,18.60
2018-08-25T08:43:10.467Z,18.70
2018-08-25T08:45:37.950Z,18.90
2018-08-25T08:48:05.244Z,19.00
2018-08-25T08:50:32.624Z,19.10
2018-08-25T08:53:00.133Z,19.10
2018-08-25T08:55:27.458Z,19.30
2018-08-25T08:57:54.903Z,19.30
2018-08-25T09:00:22.487Z,19.40
2018-08-25T09:02:49.759Z,19.40
2018-08-25T09:05:17.096Z,19.50
2018-08-25T09:07:44.399Z,19.50
2018-08-25T09:10:11.709Z,19.50
2018-08-25T09:12:39.020Z,19.50
2018-08-25T09:15:06.624Z,19.60
2018-08-25T09:17:33.927Z,19.70
2018-08-25T09:20:01.249Z,19.80
2018-08-25T09:22:28.578Z,19.80
2018-08-25T09:24:55.920Z,19.90
2018-08-25T09:27:23.345Z,20.00
2018-08-25T09:29:50.645Z,20.00
2018-08-25T09:32:17.968Z,20.10
2018-08-25T09:34:45.292Z,20.10
2018-08-25T09:37:12.604Z,20.00
2018-08-25T09:39:39.940Z,20.00
2018-08-25T09:42:07.251Z,20.10
2018-08-25T09:44:34.609Z,20.10
2018-08-25T09:47:02.197Z,20.20
2018-08-25T09:49:29.468Z,20.20
2018-08-25T09:51:56.867Z,20.30
2018-08-25T09:54:24.152Z,20.30
2018-08-25T09:56:51.475Z,20.40
2018-08-25T09:59:18.815Z,20.40
2018-08-25T10:01:51.971Z,20.50
2018-08-25T10:04:19.255Z,20.50
2018-08-25T10:06:46.585Z,20.50
2018-08-25T10:09:13.894Z,20.60
2018-08-25T10:11:41.429Z,20.70
2018-08-25T10:14:08.746Z,20.70
2018-08-25T10:16:36.174Z,20.80
2018-08-25T10:19:03.668Z,20.90
2018-08-25T10:21:31.016Z,21.00
2018-08-25T10:23:58.339Z,21.10
2018-08-25T10:26:25.847Z,21.10
2018-08-25T10:28:53.181Z,21.10
2018-08-25T10:31:20.512Z,21.10
2018-08-25T10:33:47.866Z,21.20
2018-08-25T10:36:15.144Z,21.20
2018-08-25T10:41:16.864Z,21.40
2018-08-25T10:43:44.151Z,21.50
2018-08-25T10:46:11.435Z,21.50
2018-08-25T10:48:38.843Z,21.60
2018-08-25T10:51:06.177Z,21.70
2018-08-25T10:53:33.507Z,21.60
2018-08-25T10:56:00.899Z,21.70
2018-08-25T10:58:28.434Z,21.70
2018-08-25T11:00:55.876Z,21.70
2018-08-25T11:03:23.050Z,21.60
2018-08-25T11:05:50.376Z,21.60
2018-08-25T11:08:17.676Z,21.60
2018-08-25T11:10:44.976Z,21.60
2018-08-25T11:13:12.455Z,21.60
2018-08-25T11:15:39.977Z,21.60
2018-08-25T11:18:07.275Z,21.60
2018-08-25T11:20:34.578Z,21.60
2018-08-25T11:23:01.881Z,21.70
2018-08-25T11:25:29.264Z,21.70
2018-08-25T11:27:56.587Z,21.80
2018-08-25T11:30:24.251Z,21.80
2018-08-25T11:32:51.795Z,21.80
2018-08-25T11:35:19.103Z,21.80
2018-08-25T11:37:46.494Z,21.90
2018-08-25T11:40:13.726Z,21.90
2018-08-25T11:42:41.077Z,22.00
2018-08-25T11:45:08.443Z,22.00
2018-08-25T11:47:35.765Z,22.10
2018-08-25T11:50:03.310Z,22.20
2018-08-25T11:52:30.656Z,22.30
2018-08-25T11:54:58.309Z,22.40
2018-08-25T11:57:25.631Z,22.40
2018-08-25T11:59:52.909Z,22.50
2018-08-25T12:02:20.420Z,22.50
2018-08-25T12:04:47.737Z,22.40
2018-08-25T12:07:15.074Z,22.40
2018-08-25T12:09:42.383Z,22.40
2018-08-25T12:12:09.692Z,22.40
2018-08-25T12:14:36.987Z,22.30
2018-08-25T12:17:04.483Z,22.30
2018-08-25T12:19:31.994Z,22.30
2018-08-25T12:21:59.485Z,22.30
2018-08-25T12:24:26.843Z,22.30
2018-08-25T12:26:55.587Z,22.30
2018-08-25T12:29:22.892Z,22.30
2018-08-25T12:31:50.196Z,22.30
2018-08-25T12:34:17.711Z,22.10
2018-08-25T12:36:45.003Z,21.70
2018-08-25T12:39:12.389Z,21.30
2018-08-25T12:41:39.681Z,20.70
2018-08-25T12:44:07.009Z,20.20
2018-08-25T12:46:34.424Z,19.80
2018-08-25T12:49:01.899Z,19.40
2018-08-25T12:51:29.732Z,19.00
2018-08-25T12:53:57.037Z,18.80
2018-08-25T12:56:24.354Z,18.50
2018-08-25T12:58:51.644Z,18.30
2018-08-25T13:01:18.953Z,18.10
2018-08-25T13:03:47.126Z,18.00
2018-08-25T13:06:14.470Z,17.80
2018-08-25T13:08:41.775Z,17.70
2018-08-25T13:11:09.356Z,17.70
2018-08-25T13:13:36.811Z,17.80
2018-08-25T13:16:04.144Z,17.80
2018-08-25T13:18:31.487Z,17.90
2018-08-25T13:20:58.812Z,18.00
2018-08-25T13:23:26.194Z,18.10
2018-08-25T13:25:53.453Z,18.20
2018-08-25T13:28:20.767Z,18.30
2018-08-25T13:30:48.074Z,18.30
2018-08-25T13:33:15.376Z,18.40
2018-08-25T13:35:42.688Z,18.50
2018-08-25T13:38:10.072Z,18.60
2018-08-25T13:40:37.552Z,18.70
2018-08-25T13:43:05.025Z,18.80
2018-08-25T13:45:32.382Z,19.00
2018-08-25T13:47:59.764Z,19.10
2018-08-25T13:50:27.066Z,19.30
2018-08-25T13:52:54.412Z,19.40
2018-08-25T13:55:21.922Z,19.40
2018-08-25T13:57:49.238Z,19.40
2018-08-25T14:00:16.556Z,19.40
2018-08-25T14:02:43.884Z,19.30
2018-08-25T14:05:11.239Z,19.30
2018-08-25T14:07:38.573Z,19.20
2018-08-25T14:10:05.919Z,19.10
2018-08-25T14:12:33.277Z,19.00
2018-08-25T14:15:01.090Z,18.80
2018-08-25T14:17:28.413Z,18.70
2018-08-25T14:19:55.719Z,18.70
2018-08-25T14:22:23.041Z,18.50
2018-08-25T14:24:50.407Z,18.50
2018-08-25T14:27:17.682Z,18.40
2018-08-25T14:29:44.993Z,18.30
2018-08-25T14:32:12.347Z,18.20
2018-08-25T14:34:39.695Z,18.20
2018-08-25T14:37:07.024Z,18.20
2018-08-25T14:39:34.380Z,18.20
2018-08-25T14:42:01.675Z,18.10
2018-08-25T14:44:28.975Z,18.10
2018-08-25T14:46:56.308Z,18.00
2018-08-25T14:49:23.624Z,17.90
2018-08-25T14:51:50.932Z,17.90
2018-08-25T14:54:18.438Z,17.80
2018-08-25T14:56:45.820Z,17.80
2018-08-25T14:59:13.115Z,17.90
2018-08-25T15:01:40.614Z,17.80
2018-08-25T15:04:07.935Z,17.90
2018-08-25T15:06:35.236Z,18.00
2018-08-25T15:09:03.214Z,18.10
2018-08-25T15:11:30.539Z,18.20
2018-08-25T15:13:57.843Z,18.30
2018-08-25T15:16:25.159Z,18.50
2018-08-25T15:18:52.515Z,18.70
2018-08-25T15:21:19.781Z,18.80
2018-08-25T15:23:47.067Z,19.00
2018-08-25T15:26:14.668Z,19.10
2018-08-25T15:28:41.984Z,19.30
2018-08-25T15:31:09.317Z,19.30
2018-08-25T15:33:36.732Z,19.40
2018-08-25T15:36:04.092Z,19.30
2018-08-25T15:38:31.477Z,19.30
2018-08-25T15:40:58.988Z,19.10
2018-08-25T15:43:26.335Z,19.00
2018-08-25T15:45:53.632Z,18.80
2018-08-25T15:48:20.932Z,18.60
2018-08-25T15:50:48.218Z,18.30
2018-08-25T15:53:15.527Z,18.10
2018-08-25T15:55:42.827Z,17.90
2018-08-25T15:58:10.124Z,17.70
2018-08-25T16:00:37.417Z,17.50
2018-08-25T16:03:05.181Z,17.40
2018-08-25T16:05:32.480Z,17.30
2018-08-25T16:07:59.783Z,17.30
2018-08-25T16:10:27.087Z,17.30
2018-08-25T16:12:54.589Z,17.30
2018-08-25T16:15:21.939Z,17.30
2018-08-25T16:17:49.215Z,17.40
2018-08-25T16:20:16.523Z,17.40
2018-08-25T16:22:43.949Z,17.50
2018-08-25T16:25:11.266Z,17.60
2018-08-25T16:27:38.632Z,17.80
2018-08-25T16:30:06.284Z,17.90
2018-08-25T16:32:33.628Z,18.10
2018-08-25T16:35:00.918Z,18.10
2018-08-25T16:37:28.247Z,18.20
2018-08-25T16:39:55.565Z,18.30
2018-08-25T16:42:23.113Z,18.30
2018-08-25T16:47:24.658Z,18.50
2018-08-25T16:49:52.052Z,18.50
2018-08-25T16:52:19.396Z,18.50
2018-08-25T16:54:46.721Z,18.60
2018-08-25T16:57:14.231Z,18.60
2018-08-25T16:59:41.531Z,18.60
2018-08-25T17:02:08.836Z,18.70
2018-08-25T17:04:36.160Z,18.60
2018-08-25T17:07:03.483Z,18.60
2018-08-25T17:09:31.024Z,18.60
2018-08-25T17:11:58.368Z,18.50
2018-08-25T17:14:25.673Z,18.40
2018-08-25T17:16:53.006Z,18.20
2018-08-25T17:19:20.396Z,17.80
2018-08-25T17:21:47.892Z,17.50
2018-08-25T17:24:15.271Z,17.20
2018-08-25T17:26:42.646Z,17.00
2018-08-25T17:29:17.028Z,16.70
2018-08-25T17:31:44.355Z,16.50
2018-08-25T17:34:11.659Z,16.30
2018-08-25T17:36:38.958Z,16.10
2018-08-25T17:39:08.243Z,16.00
2018-08-25T17:41:35.743Z,15.80
2018-08-25T17:44:03.076Z,15.80
2018-08-25T17:46:30.378Z,15.80
2018-08-25T17:48:57.909Z,15.80
2018-08-25T17:51:25.207Z,15.90
2018-08-25T17:53:52.504Z,15.90
2018-08-25T17:56:19.843Z,16.00
2018-08-25T17:58:47.155Z,16.10
2018-08-25T18:01:14.478Z,16.10
2018-08-25T18:03:41.830Z,16.20
2018-08-25T18:06:09.147Z,16.20
2018-08-25T18:08:36.461Z,16.30
2018-08-25T18:11:03.891Z,16.20
2018-08-25T18:13:31.168Z,16.20
2018-08-25T18:15:58.448Z,16.20
2018-08-25T18:18:25.823Z,16.20
2018-08-25T18:20:53.135Z,16.20
2018-08-25T18:23:20.490Z,16.10
2018-08-25T18:25:47.774Z,16.10
2018-08-25T18:28:15.080Z,16.10
2018-08-25T18:30:42.388Z,16.00
2018-08-25T18:33:09.710Z,15.90
2018-08-25T18:35:37.094Z,15.90
2018-08-25T18:38:04.483Z,15.90
2018-08-25T18:40:31.791Z,15.80
2018-08-25T18:42:59.183Z,15.80
2018-08-25T18:45:26.496Z,15.70
2018-08-25T18:47:53.817Z,15.70
2018-08-25T18:50:21.274Z,15.70
2018-08-25T18:52:48.787Z,15.70
2018-08-25T18:55:16.132Z,15.60
2018-08-25T18:57:43.464Z,15.50
2018-08-25T19:00:10.870Z,15.40
2018-08-25T19:02:38.179Z,15.20
2018-08-25T19:05:05.583Z,15.20
2018-08-25T19:07:32.909Z,15.10
2018-08-25T19:10:00.247Z,15.10
2018-08-25T19:12:27.579Z,15.00
2018-08-25T19:14:54.917Z,15.00
2018-08-25T19:17:22.256Z,15.00
2018-08-25T19:19:49.555Z,15.00
2018-08-25T19:22:16.899Z,15.00
2018-08-25T19:24:44.218Z,15.00
2018-08-25T19:27:11.528Z,15.00
2018-08-25T19:29:38.843Z,14.90
2018-08-25T19:32:06.223Z,14.90
2018-08-25T19:34:33.520Z,14.90
2018-08-25T19:37:00.863Z,14.80
2018-08-25T19:39:28.164Z,14.90
2018-08-25T19:41:55.472Z,14.80
2018-08-25T19:44:22.767Z,14.90
2018-08-25T19:46:50.119Z,14.90
2018-08-25T19:49:17.684Z,15.00
2018-08-25T19:51:45.009Z,14.90
2018-08-25T19:54:12.338Z,14.90
2018-08-25T19:56:39.672Z,14.90
2018-08-25T19:59:06.988Z,14.90
2018-08-25T20:01:34.307Z,15.00
2018-08-25T20:04:01.636Z,14.90
2018-08-25T20:06:28.991Z,14.90
2018-08-25T20:08:56.291Z,14.90
2018-08-25T20:11:23.597Z,14.80
2018-08-25T20:13:50.904Z,14.80
2018-08-25T20:16:18.484Z,14.90
2018-08-25T20:18:46.039Z,14.80
2018-08-25T20:21:13.315Z,14.80
2018-08-25T20:23:40.739Z,14.80
2018-08-25T20:26:08.050Z,14.80
2018-08-25T20:28:35.326Z,14.80
2018-08-25T20:31:02.917Z,14.80
2018-08-25T20:33:30.253Z,14.80
2018-08-25T20:35:57.583Z,14.80
2018-08-25T20:38:24.892Z,14.70
2018-08-25T20:40:52.239Z,14.70
2018-08-25T20:43:19.645Z,14.70
2018-08-25T20:45:47.017Z,14.60
2018-08-25T20:48:14.276Z,14.60
2018-08-25T20:50:41.566Z,14.50
2018-08-25T20:53:08.892Z,14.50
2018-08-25T20:55:36.267Z,14.40
2018-08-25T20:58:03.563Z,14.30
2018-08-25T21:00:30.883Z,14.30
2018-08-25T21:02:58.181Z,14.20
2018-08-25T21:05:25.482Z,14.20
2018-08-25T21:07:53.027Z,14.10
2018-08-25T21:10:20.296Z,14.10
2018-08-25T21:12:47.584Z,14.00
2018-08-25T21:15:15.088Z,14.00
2018-08-25T21:17:42.407Z,13.90
2018-08-25T21:20:09.715Z,13.90
2018-08-25T21:22:37.015Z,14.00
2018-08-25T21:25:04.617Z,13.80
2018-08-25T21:27:32.013Z,13.90
2018-08-25T21:29:59.305Z,13.80
2018-08-25T21:32:26.603Z,13.80
2018-08-25T21:34:53.918Z,13.70
2018-08-25T21:37:21.216Z,13.70
2018-08-25T21:39:48.739Z,13.70
2018-08-25T21:42:16.022Z,13.70
2018-08-25T21:44:43.315Z,13.70
2018-08-25T21:47:10.614Z,13.60
2018-08-25T21:49:37.907Z,13.60
2018-08-25T21:52:05.204Z,13.60
2018-08-25T21:54:32.762Z,13.60
2018-08-25T21:57:00.821Z,13.60
2018-08-25T21:59:28.115Z,13.50
2018-08-25T22:01:58.211Z,13.50
2018-08-25T22:04:25.967Z,13.50
2018-08-25T22:06:53.705Z,13.50
2018-08-25T22:09:21.023Z,13.50
2018-08-25T22:11:48.325Z,13.50
2018-08-25T22:14:15.799Z,13.40
2018-08-25T22:16:43.079Z,13.40
2018-08-25T22:19:10.355Z,13.40
2018-08-25T22:21:37.663Z,13.40
2018-08-25T22:24:04.992Z,13.40
2018-08-25T22:26:32.347Z,13.40
2018-08-25T22:28:59.677Z,13.40
2018-08-25T22:31:26.974Z,13.30
2018-08-25T22:33:54.641Z,13.30
2018-08-25T22:36:21.939Z,13.30
2018-08-25T22:38:49.277Z,13.30
2018-08-25T22:41:16.600Z,13.30
2018-08-25T22:43:43.914Z,13.20
2018-08-25T22:46:11.223Z,13.30
2018-08-25T22:48:38.871Z,13.20
2018-08-25T22:51:06.171Z,13.20
2018-08-25T22:53:33.465Z,13.20
2018-08-25T22:56:00.751Z,13.20
2018-08-25T22:58:28.039Z,13.20
2018-08-25T23:00:55.324Z,13.20
2018-08-25T23:03:22.646Z,13.10
2018-08-25T23:05:49.955Z,13.10
2018-08-25T23:08:17.250Z,13.10
2018-08-25T23:10:44.551Z,13.10
2018-08-25T23:13:11.856Z,13.00
2018-08-25T23:15:39.132Z,13.10
2018-08-25T23:18:06.607Z,13.00
2018-08-25T23:20:33.895Z,13.00
2018-08-25T23:23:01.217Z,13.00
2018-08-25T23:25:28.689Z,13.00
2018-08-25T23:27:56.037Z,13.00
2018-08-25T23:30:23.354Z,13.00
2018-08-25T23:32:50.664Z,13.00
2018-08-25T23:35:17.971Z,12.90
2018-08-25T23:37:45.291Z,12.90
2018-08-25T23:40:12.797Z,13.00
2018-08-25T23:42:40.128Z,12.90
2018-08-25T23:45:07.595Z,12.90
2018-08-25T23:47:35.063Z,12.90
2018-08-25T23:50:02.422Z,12.90
2018-08-25T23:52:36.027Z,12.80
2018-08-25T23:55:05.305Z,12.80
2018-08-25T23:57:32.972Z,12.80
